Time;durP1;ratioP1;P1;durP2;ratioP2;P2;SDS_P1;SDS_P2;PMS_P1;PMS_P2;Temp;Humidity;BMP_temperature;BMP_pressure;BME280_temperature;BME280_humidity;BME280_pressure;Samples;Min_cycle;Max_cycle;Signal;HPM_P1;HPM_P2
2022/02/04 00:03:12;;;;;;;15.00;11.13;;;4.30;99.90;;;;;;6311148;22;20139;-82
2022/02/04 00:23:13;;;;;;;37.23;19.30;;;4.00;99.90;;;;;;6321246;22;20174;-81
2022/02/04 00:28:11;;;;;;;23.97;14.43;;;4.00;99.90;;;;;;6311537;22;20581;-82
2022/02/04 00:30:43;;;;;;;20.23;13.27;;;4.00;99.90;;;;;;6309145;22;20145;-82
2022/02/04 00:33:10;;;;;;;20.30;12.83;;;3.80;99.90;;;;;;6311594;22;20168;-82
2022/02/04 00:38:30;;;;;;;14.90;10.20;;;3.50;99.90;;;;;;6320977;22;20138;-83
2022/02/04 00:41:03;;;;;;;14.10;10.20;;;3.30;99.90;;;;;;6310643;22;20490;-82
2022/02/04 00:43:30;;;;;;;18.77;10.87;;;3.30;99.90;;;;;;6310551;22;20201;-82
2022/02/04 00:53:28;;;;;;;14.70;9.27;;;3.00;99.90;;;;;;6310242;22;20203;-82
2022/02/04 01:26:06;;;;;;;18.10;11.57;;;2.60;99.90;;;;;;6310601;22;20171;-81
2022/02/04 01:28:34;;;;;;;15.57;11.33;;;2.60;99.90;;;;;;6310299;22;20137;-81
2022/02/04 01:31:00;;;;;;;15.63;11.67;;;2.80;99.90;;;;;;6308803;22;20255;-83
2022/02/04 01:33:26;;;;;;;16.60;12.13;;;2.60;99.90;;;;;;6309768;22;20201;-81
2022/02/04 01:35:54;;;;;;;13.40;10.73;;;2.60;99.90;;;;;;6310699;22;20168;-82
2022/02/04 01:38:20;;;;;;;18.20;11.63;;;2.60;99.90;;;;;;6310863;22;20640;-82
2022/02/04 01:40:46;;;;;;;18.23;12.10;;;2.80;99.90;;;;;;6309912;22;20163;-82
2022/02/04 01:43:12;;;;;;;14.50;11.70;;;2.40;99.90;;;;;;6310001;22;20235;-81
2022/02/04 01:45:37;;;;;;;16.47;11.50;;;2.40;99.90;;;;;;6307754;22;20674;-82
2022/02/04 01:48:03;;;;;;;18.03;13.13;;;2.40;99.90;;;;;;6308180;22;20159;-82
2022/02/04 01:50:31;;;;;;;15.03;11.23;;;2.40;99.90;;;;;;6309335;22;20517;-81
2022/02/04 01:52:58;;;;;;;17.13;12.70;;;2.50;99.90;;;;;;6310101;22;20198;-81
2022/02/04 01:55:24;;;;;;;17.97;12.90;;;2.50;99.90;;;;;;6308225;22;20177;-82
2022/02/04 01:57:50;;;;;;;15.53;12.40;;;2.50;99.90;;;;;;6310759;22;20152;-81
2022/02/04 02:00:17;;;;;;;22.73;14.10;;;2.60;99.90;;;;;;6311729;22;20154;-82
2022/02/04 02:02:43;;;;;;;21.30;14.73;;;2.70;99.90;;;;;;6313045;22;20179;-82
2022/02/04 02:05:09;;;;;;;21.27;15.23;;;2.90;99.90;;;;;;6313634;22;20513;-82
2022/02/04 02:07:41;;;;;;;23.10;15.33;;;3.10;99.90;;;;;;6312669;22;20201;-82
2022/02/04 02:10:12;;;;;;;22.47;15.20;;;3.40;99.90;;;;;;6315011;22;20203;-82
2022/02/04 02:12:49;;;;;;;22.60;15.40;;;3.40;99.90;;;;;;6314888;22;20217;-82
2022/02/04 02:15:42;;;;;;;21.80;15.57;;;3.70;99.90;;;;;;6314659;22;20179;-82
2022/02/04 02:53:26;;;;;;;22.07;14.80;;;4.60;99.90;;;;;;6314548;22;20141;-82
2022/02/04 02:56:16;;;;;;;20.93;13.83;;;4.60;99.90;;;;;;6314577;22;20512;-82
2022/02/04 02:58:37;;;;;;;18.90;14.23;;;4.60;99.90;;;;;;6312812;22;20152;-83
2022/02/04 03:01:06;;;;;;;17.90;14.23;;;4.60;99.90;;;;;;6315406;22;20229;-82
2022/02/04 03:03:34;;;;;;;17.90;12.83;;;4.70;99.90;;;;;;6313981;22;20513;-83
2022/02/04 03:06:00;;;;;;;18.07;13.37;;;4.90;99.90;;;;;;6311708;22;20164;-81
2022/02/04 03:08:27;;;;;;;19.77;14.03;;;4.90;99.90;;;;;;6318399;22;20450;-83
2022/02/04 03:10:54;;;;;;;17.17;13.47;;;4.90;99.90;;;;;;6314011;22;20156;-82
2022/02/04 03:13:21;;;;;;;16.83;13.50;;;4.90;99.90;;;;;;6310573;22;20181;-82
2022/02/04 03:15:55;;;;;;;17.67;13.93;;;4.90;99.90;;;;;;6311571;22;20266;-82
2022/02/04 03:18:23;;;;;;;17.97;13.23;;;5.00;99.90;;;;;;6311149;22;20149;-82
2022/02/04 03:20:52;;;;;;;16.70;12.53;;;5.00;99.90;;;;;;6311547;22;20216;-82
2022/02/04 03:23:19;;;;;;;15.27;12.30;;;5.00;99.90;;;;;;6310679;22;20191;-82
2022/02/04 03:25:51;;;;;;;14.77;11.63;;;5.10;99.90;;;;;;6312815;22;20226;-82
2022/02/04 03:28:22;;;;;;;15.87;12.23;;;5.10;99.90;;;;;;6311383;22;20149;-81
2022/02/04 03:30:50;;;;;;;14.10;12.10;;;5.10;99.90;;;;;;6312368;22;20132;-82
2022/02/04 03:33:18;;;;;;;15.17;11.83;;;5.00;99.90;;;;;;6310510;22;20166;-81
2022/02/04 03:35:44;;;;;;;16.70;12.03;;;5.30;99.90;;;;;;6309886;22;20318;-84
2022/02/04 03:38:09;;;;;;;18.00;13.80;;;4.90;99.90;;;;;;6308999;22;20153;-83
2022/02/04 03:40:35;;;;;;;18.33;14.63;;;4.80;99.90;;;;;;6309232;22;20157;-84
2022/02/04 03:43:01;;;;;;;20.37;14.77;;;4.70;99.90;;;;;;6309953;22;20255;-81
2022/02/04 03:45:27;;;;;;;20.10;14.53;;;4.60;99.90;;;;;;6310800;22;20175;-82
2022/02/04 03:47:52;;;;;;;18.13;14.07;;;4.40;99.90;;;;;;6309847;22;20210;-81
2022/02/04 03:50:18;;;;;;;16.87;13.23;;;4.40;99.90;;;;;;6309951;22;20159;-82
2022/02/04 03:52:45;;;;;;;17.23;14.37;;;4.40;99.90;;;;;;6308964;22;20580;-83
2022/02/04 03:55:11;;;;;;;15.50;13.17;;;4.40;99.90;;;;;;6309112;22;20165;-82
2022/02/04 03:57:37;;;;;;;15.97;12.50;;;4.40;99.90;;;;;;6310745;22;20159;-84
2022/02/04 04:00:05;;;;;;;19.20;13.67;;;4.60;99.90;;;;;;6309810;22;20176;-83
2022/02/04 04:02:31;;;;;;;18.60;14.20;;;4.20;99.90;;;;;;6308316;22;20156;-83
2022/02/04 04:04:57;;;;;;;18.60;13.93;;;4.10;99.90;;;;;;6310361;22;20165;-82
2022/02/04 04:07:22;;;;;;;21.37;15.17;;;4.10;99.90;;;;;;6309430;22;20149;-82
2022/02/04 04:09:57;;;;;;;20.37;14.33;;;4.00;99.90;;;;;;6311454;22;20146;-82
2022/02/04 04:12:24;;;;;;;17.07;12.97;;;4.00;99.90;;;;;;6312068;22;20262;-83
2022/02/04 04:14:53;;;;;;;20.30;13.83;;;3.60;99.90;;;;;;6309479;22;20188;-82
2022/02/04 04:17:19;;;;;;;17.63;14.00;;;3.70;99.90;;;;;;6310001;22;20161;-82
2022/02/04 04:19:45;;;;;;;19.70;14.43;;;3.50;99.90;;;;;;6283849;22;20156;-83
2022/02/04 04:22:11;;;;;;;17.03;13.63;;;3.40;99.90;;;;;;6305898;22;20155;-83
2022/02/04 04:24:36;;;;;;;17.00;13.73;;;3.30;99.90;;;;;;6310776;22;20201;-82
2022/02/04 04:27:02;;;;;;;21.63;15.57;;;3.30;99.90;;;;;;6311091;22;20570;-82
2022/02/04 04:29:28;;;;;;;18.23;14.03;;;3.30;99.90;;;;;;6309822;22;20148;-83
2022/02/04 04:31:53;;;;;;;19.97;14.87;;;3.30;99.90;;;;;;6307629;22;20152;-82
2022/02/04 04:34:19;;;;;;;21.73;15.80;;;3.40;99.90;;;;;;6309915;22;20156;-82
2022/02/04 04:36:45;;;;;;;20.33;15.30;;;3.40;99.90;;;;;;6309473;22;20176;-83
2022/02/04 04:39:26;;;;;;;18.80;14.67;;;3.80;99.90;;;;;;6311681;22;20152;-82
2022/02/04 05:28:00;;;;;;;17.87;13.80;;;2.90;99.90;;;;;;6280001;22;20144;-82
2022/02/04 05:30:25;;;;;;;23.93;15.57;;;2.90;99.90;;;;;;6280148;22;20223;-82
2022/02/04 05:32:51;;;;;;;21.80;15.80;;;2.90;99.90;;;;;;6279917;22;20147;-82
2022/02/04 05:35:18;;;;;;;21.00;15.03;;;3.00;99.90;;;;;;6279268;22;20167;-82
2022/02/04 05:37:47;;;;;;;19.63;15.03;;;3.00;99.90;;;;;;6278949;22;20530;-82
2022/02/04 05:40:17;;;;;;;21.23;15.33;;;3.00;99.90;;;;;;6276770;22;20155;-81
2022/02/04 05:42:52;;;;;;;18.67;14.23;;;3.10;99.90;;;;;;6250893;22;20159;-82
2022/02/04 05:45:22;;;;;;;21.97;16.10;;;3.10;99.90;;;;;;6276242;22;20178;-82
2022/02/04 05:47:51;;;;;;;21.27;15.10;;;3.20;99.90;;;;;;6276639;22;20176;-82
2022/02/04 05:50:43;;;;;;;19.97;15.93;;;3.20;99.90;;;;;;6278856;22;20145;-82
2022/02/04 06:00:52;;;;;;;14.80;12.37;;;3.60;99.90;;;;;;6288538;22;20140;-82
2022/02/04 06:24:02;;;;;;;21.33;14.17;;;3.70;99.90;;;;;;6307787;22;20182;-83
2022/02/04 06:26:29;;;;;;;16.90;13.23;;;3.50;99.90;;;;;;6307537;22;20636;-84
2022/02/04 06:28:55;;;;;;;17.63;14.10;;;4.10;99.90;;;;;;6306894;22;20158;-81
2022/02/04 06:31:22;;;;;;;19.80;13.57;;;3.80;99.90;;;;;;6276163;22;20145;-81
2022/02/04 06:33:48;;;;;;;19.57;14.33;;;3.50;99.90;;;;;;6273871;22;20157;-80
2022/02/04 06:36:14;;;;;;;21.83;14.83;;;3.60;99.90;;;;;;6275830;22;20176;-81
2022/02/04 06:38:42;;;;;;;17.40;13.60;;;3.60;99.90;;;;;;6250257;22;20153;-81
2022/02/04 06:41:08;;;;;;;16.67;13.30;;;3.50;99.90;;;;;;6279804;22;20188;-80
2022/02/04 06:43:35;;;;;;;16.97;13.33;;;3.80;99.90;;;;;;6257629;22;20195;-80
2022/02/04 06:46:02;;;;;;;18.27;13.60;;;4.40;99.90;;;;;;6274076;22;20141;-80
2022/02/04 06:48:27;;;;;;;17.43;13.87;;;4.00;99.90;;;;;;6279989;22;20147;-80
2022/02/04 06:50:53;;;;;;;19.53;14.10;;;4.10;99.90;;;;;;6284128;22;20613;-80
2022/02/04 06:53:19;;;;;;;18.10;13.60;;;4.30;99.90;;;;;;6254842;22;20156;-80
2022/02/04 06:55:45;;;;;;;18.50;14.20;;;4.30;99.90;;;;;;6253800;22;20163;-80
2022/02/04 06:58:12;;;;;;;27.63;16.33;;;4.30;99.90;;;;;;6281281;22;20224;-80
2022/02/04 07:00:39;;;;;;;20.43;15.40;;;4.40;99.90;;;;;;6255745;22;20257;-80
2022/02/04 07:03:04;;;;;;;20.80;15.23;;;4.30;99.90;;;;;;6282572;22;20172;-80
2022/02/04 07:05:38;;;;;;;20.60;15.10;;;4.60;99.90;;;;;;6282365;22;20240;-80
2022/02/04 07:08:21;;;;;;;21.50;14.47;;;4.60;99.90;;;;;;6283170;22;20156;-80
2022/02/04 07:13:22;;;;;;;21.50;14.73;;;4.90;99.90;;;;;;6282676;22;20485;-80
2022/02/04 07:15:59;;;;;;;21.67;14.50;;;4.90;99.90;;;;;;6281360;22;20130;-80
2022/02/04 07:21:09;;;;;;;21.87;15.13;;;4.90;99.90;;;;;;6282131;22;20213;-80
2022/02/04 07:23:35;;;;;;;20.80;14.77;;;4.90;99.90;;;;;;6281791;22;20174;-80
2022/02/04 07:26:02;;;;;;;24.37;15.13;;;4.90;99.90;;;;;;6281176;22;20142;-80
2022/02/04 07:28:29;;;;;;;19.50;14.87;;;4.80;99.90;;;;;;6281659;22;20212;-80
2022/02/04 07:30:55;;;;;;;20.10;14.87;;;4.90;99.90;;;;;;6254557;22;20186;-80
2022/02/04 07:33:25;;;;;;;18.53;14.60;;;5.00;99.90;;;;;;6251125;23;20154;-80
2022/02/04 07:41:05;;;;;;;18.93;14.40;;;4.90;99.90;;;;;;6251168;23;20173;-80
2022/02/04 07:43:31;;;;;;;21.87;14.27;;;5.00;99.90;;;;;;6250459;23;20179;-80
2022/02/04 07:45:58;;;;;;;21.03;14.00;;;5.00;99.90;;;;;;6251308;23;20143;-80
2022/02/04 07:48:25;;;;;;;19.50;13.83;;;5.00;99.90;;;;;;6250939;23;20148;-80
2022/02/04 07:50:51;;;;;;;18.67;14.07;;;5.00;99.90;;;;;;6250565;23;20228;-80
2022/02/04 07:53:18;;;;;;;21.50;15.13;;;5.10;99.90;;;;;;6251031;23;20522;-80
2022/02/04 07:55:45;;;;;;;16.77;13.03;;;5.20;99.90;;;;;;6250507;23;20154;-80
2022/02/04 07:58:12;;;;;;;18.47;14.53;;;5.50;99.90;;;;;;6250115;23;20486;-80
2022/02/04 08:00:39;;;;;;;18.20;13.43;;;5.20;99.90;;;;;;6223787;23;20206;-80
2022/02/04 08:03:27;;;;;;;16.83;12.03;;;5.20;99.90;;;;;;6251374;23;20552;-80
2022/02/04 08:05:55;;;;;;;18.73;13.37;;;5.20;99.90;;;;;;6250570;23;20125;-80
2022/02/04 08:08:38;;;;;;;17.13;13.13;;;5.20;99.90;;;;;;6223399;23;20213;-80
2022/02/04 08:19:18;;;;;;;13.87;12.47;;;5.30;99.90;;;;;;6260746;23;20138;-80
2022/02/04 08:24:36;;;;;;;14.37;11.53;;;5.30;99.90;;;;;;6249227;23;20246;-81
2022/02/04 08:37:49;;;;;;;15.77;11.40;;;5.40;99.90;;;;;;6249671;23;20200;-81
2022/02/04 08:53:50;;;;;;;13.73;10.87;;;5.60;99.90;;;;;;6259886;23;20185;-81
2022/02/04 08:56:20;;;;;;;13.90;11.13;;;5.60;99.90;;;;;;6249130;23;20169;-81
2022/02/04 08:58:56;;;;;;;12.30;10.43;;;5.60;99.90;;;;;;6249489;23;20193;-81
2022/02/04 09:01:31;;;;;;;12.57;11.23;;;5.60;99.90;;;;;;6222046;23;20147;-80
2022/02/04 09:04:06;;;;;;;11.17;9.83;;;5.60;99.90;;;;;;6246512;23;20243;-80
2022/02/04 09:06:42;;;;;;;11.07;9.37;;;5.70;99.90;;;;;;6247609;23;20181;-79
2022/02/04 09:09:29;;;;;;;11.53;9.73;;;5.80;99.90;;;;;;6248087;23;20171;-80
2022/02/04 09:12:04;;;;;;;10.87;9.70;;;5.80;99.90;;;;;;6247887;23;20154;-80
2022/02/04 09:20:37;;;;;;;10.17;9.03;;;5.90;99.90;;;;;;6278245;22;20244;-81
2022/02/04 09:23:03;;;;;;;10.37;8.80;;;6.00;99.90;;;;;;6309816;22;20172;-82
2022/02/04 09:26:06;;;;;;;10.07;9.00;;;6.00;99.90;;;;;;6283677;22;20157;-78
2022/02/04 09:28:35;;;;;;;10.97;8.50;;;6.00;99.90;;;;;;6302614;22;20161;-81
2022/02/04 09:31:01;;;;;;;10.30;9.03;;;;;;;;;;6311869;22;20181;-81
2022/02/04 09:33:34;;;;;;;9.30;8.17;;;6.20;99.90;;;;;;6312085;22;20164;-79
2022/02/04 09:36:00;;;;;;;8.40;7.60;;;6.20;99.90;;;;;;6285013;22;20153;-82
2022/02/04 09:38:41;;;;;;;10.17;8.67;;;;;;;;;;6311765;22;20158;-79
2022/02/04 09:41:07;;;;;;;7.97;7.17;;;;;;;;;;6294164;22;20295;-81
2022/02/04 09:44:01;;;;;;;10.87;8.10;;;;;;;;;;6309682;22;20182;-78
2022/02/04 09:47:07;;;;;;;9.20;7.97;;;;;;;;;;6283607;22;20234;-78
2022/02/04 09:49:39;;;;;;;8.40;7.50;;;;;;;;;;6310698;22;20184;-79
2022/02/04 10:32:07;;;;;;;6.97;5.50;;;6.50;99.90;;;;;;6302521;22;20213;-78
2022/02/04 10:34:41;;;;;;;6.10;5.50;;;6.70;99.90;;;;;;6284667;22;20165;-78
2022/02/04 10:37:25;;;;;;;5.93;5.33;;;6.50;99.90;;;;;;6284973;22;20155;-81
2022/02/04 11:52:40;;;;;;;2.40;2.20;;;6.70;99.90;;;;;;6324637;22;20443;-81
2022/02/04 11:55:12;;;;;;;2.67;2.30;;;6.70;99.90;;;;;;6313040;22;20135;-81
2022/02/04 11:57:39;;;;;;;4.10;2.03;;;;;;;;;;6286277;22;20493;-82
2022/02/04 12:00:20;;;;;;;2.37;1.77;;;;;;;;;;6312862;22;20164;-82
2022/02/04 12:02:47;;;;;;;4.70;2.17;;;;;;;;;;6312486;22;20147;-81
2022/02/04 12:05:16;;;;;;;4.63;2.50;;;;;;;;;;6284966;22;20154;-82
2022/02/04 12:07:44;;;;;;;2.50;1.80;;;;;;;;;;6284151;22;20310;-82
2022/02/04 12:10:12;;;;;;;2.13;1.77;;;;;;;;;;6311342;22;20254;-82
2022/02/04 12:15:30;;;;;;;2.53;2.33;;;;;;;;;;6313799;22;20668;-82
2022/02/04 12:17:56;;;;;;;2.40;2.20;;;;;;;;;;6282647;22;20229;-82
2022/02/04 12:20:41;;;;;;;2.70;1.83;;;;;;;;;;6292474;22;20185;-82
2022/02/04 12:23:07;;;;;;;2.63;2.20;;;;;;;;;;6280786;22;20168;-81
2022/02/04 12:25:56;;;;;;;1.83;1.73;;;;;;;;;;6280804;22;20176;-81
2022/02/04 12:28:41;;;;;;;2.07;1.87;;;;;;;;;;6260996;22;20537;-82
2022/02/04 12:31:24;;;;;;;1.97;1.63;;;6.70;99.90;;;;;;6279600;22;20168;-82
2022/02/04 12:34:12;;;;;;;1.90;1.70;;;6.80;99.90;;;;;;6280480;22;20525;-81
2022/02/04 12:36:44;;;;;;;2.10;1.70;;;6.70;99.90;;;;;;6278909;22;20139;-82
2022/02/04 12:39:19;;;;;;;2.40;2.20;;;6.80;99.90;;;;;;6280393;22;20196;-81
2022/02/04 12:41:46;;;;;;;2.00;1.40;;;6.70;99.90;;;;;;6279097;22;20538;-81
2022/02/04 12:44:27;;;;;;;2.17;1.90;;;6.80;99.90;;;;;;6280337;22;20176;-81
2022/02/04 12:47:00;;;;;;;1.40;1.10;;;6.80;99.90;;;;;;6280095;22;20162;-81
2022/02/04 12:49:28;;;;;;;2.37;1.70;;;6.70;99.90;;;;;;6254082;22;20619;-81
2022/02/04 12:54:50;;;;;;;2.67;1.63;;;6.80;99.90;;;;;;6289075;22;20149;-81
2022/02/04 13:10:29;;;;;;;2.33;1.60;;;6.90;99.90;;;;;;6278341;22;20628;-80
2022/02/04 13:13:06;;;;;;;1.00;0.83;;;6.90;99.90;;;;;;6278744;22;20211;-81
2022/02/04 13:15:35;;;;;;;1.20;1.10;;;6.80;99.90;;;;;;6252552;22;20176;-79
2022/02/04 13:18:09;;;;;;;1.60;1.37;;;6.70;99.90;;;;;;6251004;22;20179;-80
2022/02/04 13:20:38;;;;;;;1.37;1.10;;;6.70;99.90;;;;;;6281961;22;20236;-80
2022/02/04 13:23:09;;;;;;;2.07;1.20;;;6.70;99.90;;;;;;6281591;22;20622;-80
2022/02/04 13:25:40;;;;;;;1.10;1.00;;;6.70;99.90;;;;;;6279121;22;20197;-80
2022/02/04 13:28:12;;;;;;;1.53;1.10;;;6.70;99.90;;;;;;6278777;22;20138;-81
2022/02/04 13:30:41;;;;;;;1.10;1.00;;;6.70;99.90;;;;;;6278747;22;20176;-80
2022/02/04 13:33:19;;;;;;;1.43;1.20;;;6.70;99.90;;;;;;6277623;22;20174;-80
2022/02/04 13:35:52;;;;;;;1.53;1.30;;;6.60;99.90;;;;;;6276798;22;20141;-80
2022/02/04 13:38:24;;;;;;;1.13;1.03;;;6.70;99.90;;;;;;6277331;22;20192;-80
2022/02/04 13:41:07;;;;;;;1.23;1.13;;;6.60;99.90;;;;;;6277774;22;20671;-80
2022/02/04 13:44:16;;;;;;;1.80;1.00;;;6.60;99.90;;;;;;6250232;22;20145;-80
2022/02/04 13:46:32;;;;;;;1.37;1.13;;;6.60;99.90;;;;;;6269417;22;20154;-80
2022/02/04 13:52:01;;;;;;;1.37;0.97;;;6.80;99.90;;;;;;6288349;22;20144;-80
2022/02/04 14:00:05;;;;;;;1.27;0.90;;;6.80;99.90;;;;;;6280394;22;20254;-80
2022/02/04 14:02:39;;;;;;;1.07;0.83;;;7.00;99.90;;;;;;6277805;22;20144;-80
2022/02/04 14:05:05;;;;;;;1.30;1.00;;;6.80;99.90;;;;;;6250920;22;20144;-82
2022/02/04 14:07:34;;;;;;;1.50;1.10;;;6.90;99.90;;;;;;6276940;22;20154;-80
2022/02/04 14:10:08;;;;;;;1.63;1.40;;;6.80;99.90;;;;;;6249791;22;20697;-80
2022/02/04 14:12:33;;;;;;;2.27;1.33;;;6.80;99.90;;;;;;6252229;22;20143;-80
2022/02/04 14:15:02;;;;;;;1.20;1.00;;;6.90;99.90;;;;;;6276982;22;20185;-80
2022/02/04 14:17:28;;;;;;;0.70;0.60;;;7.10;99.90;;;;;;6278408;22;20188;-80
2022/02/04 14:20:06;;;;;;;0.80;0.80;;;6.90;99.90;;;;;;6260175;22;20190;-81
2022/02/04 14:22:48;;;;;;;0.97;0.97;;;6.50;99.90;;;;;;6289217;22;20148;-84
2022/02/04 14:51:35;;;;;;;1.40;0.63;;;6.70;99.90;;;;;;6259166;23;20194;-83
2022/02/04 14:54:09;;;;;;;1.40;0.73;;;6.70;99.90;;;;;;6259851;23;20153;-81
2022/02/04 15:01:59;;;;;;;1.80;0.60;;;6.70;99.90;;;;;;6262825;23;20238;-81
2022/02/04 15:04:38;;;;;;;1.03;0.67;;;6.80;99.90;;;;;;6260097;23;20169;-81
2022/02/04 15:07:05;;;;;;;0.60;0.60;;;6.70;99.90;;;;;;6260240;23;20126;-81
2022/02/04 15:09:31;;;;;;;0.77;0.50;;;6.70;99.90;;;;;;6261734;23;20461;-82
2022/02/04 15:11:57;;;;;;;0.60;0.57;;;6.80;99.90;;;;;;6261454;23;20172;-81
2022/02/04 15:14:23;;;;;;;0.30;0.30;;;6.70;99.90;;;;;;6262077;23;20148;-81
2022/02/04 15:16:48;;;;;;;1.60;0.70;;;6.70;99.90;;;;;;6263456;23;20152;-82
2022/02/04 15:19:14;;;;;;;1.47;1.37;;;6.70;99.90;;;;;;6262876;23;20155;-83
2022/02/04 15:21:44;;;;;;;0.50;0.50;;;6.70;99.90;;;;;;6260905;23;20227;-83
2022/02/04 15:24:10;;;;;;;0.70;0.70;;;6.60;99.90;;;;;;6263697;23;20170;-81
2022/02/04 15:26:36;;;;;;;0.60;0.50;;;6.70;99.90;;;;;;6263333;23;20186;-81
2022/02/04 15:29:07;;;;;;;1.00;0.50;;;6.70;99.90;;;;;;6262257;23;20462;-80
2022/02/04 15:32:15;;;;;;;0.60;0.40;;;6.70;99.90;;;;;;6259600;23;20180;-82
2022/02/04 15:34:24;;;;;;;0.67;0.47;;;6.80;99.90;;;;;;6254507;23;20183;-81
2022/02/04 15:36:50;;;;;;;0.83;0.70;;;6.60;99.90;;;;;;6259717;23;20156;-81
2022/02/04 15:39:21;;;;;;;0.70;0.70;;;6.60;99.90;;;;;;6262765;23;20601;-83
2022/02/04 15:41:51;;;;;;;1.07;0.80;;;6.60;99.90;;;;;;6259805;23;20175;-82
2022/02/04 16:04:58;;;;;;;0.33;0.30;;;6.60;99.90;;;;;;6267388;22;20176;-82
2022/02/04 16:07:25;;;;;;;1.07;0.70;;;6.60;99.90;;;;;;6267066;22;20168;-82
2022/02/04 16:10:03;;;;;;;0.70;0.50;;;6.60;99.90;;;;;;6262435;23;20513;-82
2022/02/04 16:12:49;;;;;;;0.50;0.43;;;6.60;99.90;;;;;;6255890;23;20145;-81
2022/02/04 16:15:39;;;;;;;0.50;0.40;;;6.60;99.90;;;;;;6257456;23;20152;-81
2022/02/04 16:18:14;;;;;;;0.90;0.63;;;6.50;99.90;;;;;;6256937;23;20151;-81
2022/02/04 16:23:35;;;;;;;2.20;0.60;;;6.50;99.90;;;;;;6257472;23;20226;-82
2022/02/04 16:28:41;;;;;;;0.47;0.43;;;6.50;99.90;;;;;;6268009;22;20136;-84
2022/02/04 16:31:11;;;;;;;1.43;0.70;;;6.60;99.90;;;;;;6255827;23;20171;-82
2022/02/04 16:33:37;;;;;;;0.93;0.60;;;6.90;99.90;;;;;;6257942;23;20216;-81
2022/02/04 16:36:07;;;;;;;0.70;0.70;;;6.60;99.90;;;;;;6257176;23;20156;-81
2022/02/04 16:38:33;;;;;;;1.57;0.60;;;6.60;99.90;;;;;;6255242;23;20144;-82
2022/02/04 16:41:11;;;;;;;1.17;0.70;;;6.60;99.90;;;;;;6256192;23;20180;-82
2022/02/04 16:43:36;;;;;;;1.50;0.80;;;6.60;99.90;;;;;;6256869;23;20194;-81
2022/02/04 16:46:06;;;;;;;2.77;1.00;;;6.60;99.90;;;;;;6256208;23;20644;-81
2022/02/04 16:48:32;;;;;;;1.37;1.13;;;6.50;99.90;;;;;;6256052;23;20609;-80
2022/02/04 16:50:58;;;;;;;1.50;1.20;;;6.50;99.90;;;;;;6258064;23;20626;-82
2022/02/04 16:53:27;;;;;;;1.20;1.00;;;6.50;99.90;;;;;;6256125;23;20244;-81
2022/02/04 16:55:53;;;;;;;1.20;1.10;;;6.60;99.90;;;;;;6257540;23;20163;-81
2022/02/04 16:58:19;;;;;;;1.30;1.03;;;6.60;99.90;;;;;;6257031;23;20191;-82
2022/02/04 17:00:45;;;;;;;1.03;0.87;;;6.60;99.90;;;;;;6259115;23;20176;-82
2022/02/04 17:03:11;;;;;;;1.80;1.30;;;6.50;99.90;;;;;;6252970;23;20266;-83
2022/02/04 17:06:02;;;;;;;2.33;1.10;;;6.60;99.90;;;;;;6254279;23;20145;-83
2022/02/04 17:08:34;;;;;;;1.10;1.00;;;6.60;99.90;;;;;;6255082;23;20503;-82
2022/02/04 17:11:02;;;;;;;1.00;0.90;;;6.70;99.90;;;;;;6255248;23;20191;-81
2022/02/04 17:13:33;;;;;;;0.77;0.70;;;6.80;99.90;;;;;;6256156;22;20161;-82
2022/02/04 17:15:59;;;;;;;1.23;0.73;;;6.60;99.90;;;;;;6256080;23;20214;-82
2022/02/04 17:18:25;;;;;;;0.73;0.50;;;6.50;99.90;;;;;;6255354;23;20152;-81
2022/02/04 17:20:51;;;;;;;1.53;0.73;;;6.60;99.90;;;;;;6252860;23;20234;-82
2022/02/04 17:23:27;;;;;;;0.60;0.60;;;7.00;99.90;;;;;;6254658;23;20188;-82
2022/02/04 17:25:55;;;;;;;0.60;0.60;;;6.90;99.90;;;;;;6253488;23;20140;-83
2022/02/04 17:28:28;;;;;;;0.40;0.40;;;7.10;99.90;;;;;;6253333;23;20156;-80
2022/02/04 17:30:55;;;;;;;0.57;0.50;;;6.60;99.90;;;;;;6253740;23;20172;-81
2022/02/04 17:33:21;;;;;;;0.77;0.60;;;6.70;99.90;;;;;;6259815;23;20224;-82
2022/02/04 17:35:47;;;;;;;0.47;0.40;;;6.70;99.90;;;;;;6253710;23;20152;-81
2022/02/04 17:38:14;;;;;;;0.83;0.50;;;6.70;99.90;;;;;;6249877;23;20621;-82
2022/02/04 17:40:40;;;;;;;0.63;0.53;;;6.80;99.90;;;;;;6252328;23;20677;-82
2022/02/04 17:43:06;;;;;;;0.50;0.50;;;6.60;99.90;;;;;;6251338;23;20153;-81
2022/02/04 17:45:32;;;;;;;0.57;0.53;;;7.00;99.90;;;;;;6256554;23;20153;-82
2022/02/04 17:48:08;;;;;;;0.90;0.80;;;6.60;99.90;;;;;;6255975;23;20308;-81
2022/02/04 17:50:54;;;;;;;0.60;0.60;;;6.60;99.90;;;;;;6256069;23;20240;-81
2022/02/04 17:53:24;;;;;;;1.23;0.70;;;6.60;99.90;;;;;;6253986;23;20878;-81
2022/02/04 17:55:56;;;;;;;1.00;0.90;;;6.50;99.90;;;;;;6257969;23;20488;-83
2022/02/04 17:58:30;;;;;;;0.97;0.50;;;6.50;99.90;;;;;;6259126;23;20135;-80
2022/02/04 18:03:36;;;;;;;1.63;0.80;;;6.40;99.90;;;;;;6258842;23;20175;-82
2022/02/04 18:06:14;;;;;;;1.20;0.80;;;6.60;99.90;;;;;;6255564;23;20171;-82
2022/02/04 18:08:40;;;;;;;1.03;0.80;;;6.50;99.90;;;;;;6257839;23;20163;-82
2022/02/04 18:11:06;;;;;;;1.00;0.80;;;6.40;99.90;;;;;;6257901;23;20614;-83
2022/02/04 18:13:32;;;;;;;2.10;1.30;;;6.50;99.90;;;;;;6258623;23;20156;-82
2022/02/04 18:16:00;;;;;;;1.20;0.90;;;6.50;99.90;;;;;;6259749;22;20156;-82
2022/02/04 18:18:27;;;;;;;1.20;0.70;;;6.50;99.90;;;;;;6258163;23;20542;-83
2022/02/04 18:20:54;;;;;;;1.53;0.80;;;6.40;99.90;;;;;;6257121;23;20641;-82
2022/02/04 18:23:20;;;;;;;1.13;0.97;;;6.40;99.90;;;;;;6257188;23;20180;-82
2022/02/04 18:25:48;;;;;;;1.87;0.70;;;6.40;99.90;;;;;;6257493;23;20162;-82
2022/02/04 18:28:14;;;;;;;0.87;0.70;;;6.50;99.90;;;;;;6258464;23;20491;-82
2022/02/04 18:33:56;;;;;;;2.40;1.20;;;6.40;99.90;;;;;;6276464;22;20159;-83
2022/02/04 18:36:34;;;;;;;1.17;0.80;;;6.30;99.90;;;;;;6288676;22;20155;-82
2022/02/04 19:12:13;;;;;;;;;;;;;;;;;;;;;
2022/02/04 19:25:04;;;;;;;2.03;1.67;;;6.30;99.90;;;;;;6258752;23;20196;-83
2022/02/04 19:27:54;;;;;;;1.83;1.43;;;6.50;99.90;;;;;;6259493;23;20181;-83
2022/02/04 19:30:25;;;;;;;1.40;1.00;;;6.50;99.90;;;;;;6287997;22;20172;-81
2022/02/04 19:33:01;;;;;;;3.43;1.63;;;6.00;99.90;;;;;;6262887;23;20140;-83
2022/02/04 19:36:05;;;;;;;1.97;1.20;;;6.50;99.90;;;;;;6261469;23;20136;-82
2022/02/04 19:38:42;;;;;;;2.10;1.37;;;6.70;99.90;;;;;;6229673;23;20157;-82
2022/02/04 19:41:32;;;;;;;1.50;1.40;;;6.40;99.90;;;;;;6260803;23;20169;-82
2022/02/04 19:44:04;;;;;;;1.93;1.50;;;6.60;99.90;;;;;;6261135;23;20180;-83
2022/02/04 19:46:48;;;;;;;;;;;;;;;;;;;;;
2022/02/04 20:07:28;;;;;;;1.30;1.20;;;6.40;99.90;;;;;;6258581;23;20180;-82
2022/02/04 20:26:58;;;;;;;2.23;1.77;;;6.20;99.90;;;;;;6309054;22;20142;-83
2022/02/04 20:29:23;;;;;;;1.77;1.57;;;6.10;99.90;;;;;;6309781;22;20245;-83
2022/02/04 20:31:49;;;;;;;2.93;1.40;;;6.10;99.90;;;;;;6309407;22;20169;-81
2022/02/04 20:34:15;;;;;;;2.33;1.90;;;6.20;99.90;;;;;;6281921;22;20154;-79
2022/02/04 20:36:41;;;;;;;1.67;1.33;;;6.30;99.90;;;;;;6308626;22;20154;-80
2022/02/04 20:39:07;;;;;;;2.00;1.77;;;6.30;99.90;;;;;;6309029;22;20150;-80
2022/02/04 20:41:34;;;;;;;3.40;1.40;;;6.30;99.90;;;;;;6309246;22;20158;-79
2022/02/04 20:44:01;;;;;;;2.00;1.80;;;6.30;99.90;;;;;;6309636;22;20178;-79
2022/02/04 20:46:27;;;;;;;1.43;1.30;;;6.30;99.90;;;;;;6310033;22;20147;-79
2022/02/04 20:48:53;;;;;;;2.10;1.87;;;6.40;99.90;;;;;;6310263;22;20155;-79
2022/02/04 20:51:20;;;;;;;1.60;1.50;;;6.40;99.90;;;;;;6284319;22;20155;-79
2022/02/04 20:53:46;;;;;;;2.27;1.73;;;6.30;99.90;;;;;;6283449;22;20174;-80
2022/02/04 20:56:12;;;;;;;2.60;2.07;;;6.70;99.90;;;;;;6310693;22;20171;-80
2022/02/04 20:58:38;;;;;;;3.23;1.40;;;6.70;99.90;;;;;;6312484;22;20210;-79
2022/02/04 21:01:12;;;;;;;1.80;1.60;;;6.30;99.90;;;;;;6312991;22;20156;-79
2022/02/04 21:03:39;;;;;;;1.80;1.50;;;6.40;99.90;;;;;;6313514;22;20185;-80
2022/02/04 21:06:16;;;;;;;1.70;1.27;;;6.40;99.90;;;;;;6314356;22;20177;-79
2022/02/04 21:14:03;;;;;;;1.50;1.33;;;6.60;99.90;;;;;;6315858;22;20220;-80
2022/02/04 21:16:31;;;;;;;2.23;1.40;;;6.60;99.90;;;;;;6286379;22;20215;-79
2022/02/04 21:18:57;;;;;;;2.97;1.30;;;6.60;99.90;;;;;;6314158;22;20154;-79
2022/02/04 21:21:24;;;;;;;1.63;1.30;;;6.70;99.90;;;;;;6315184;22;20150;-79
2022/02/04 21:23:53;;;;;;;1.33;1.20;;;6.50;99.90;;;;;;6314226;22;20195;-79
2022/02/04 21:26:20;;;;;;;2.20;1.43;;;6.50;99.90;;;;;;6315153;22;20151;-79
2022/02/04 21:28:47;;;;;;;2.00;1.37;;;6.50;99.90;;;;;;6314776;22;20519;-79
2022/02/04 21:31:14;;;;;;;1.50;1.40;;;6.50;99.90;;;;;;6315589;22;20588;-79
2022/02/04 21:34:06;;;;;;;2.00;1.17;;;6.60;99.90;;;;;;6314431;22;20233;-79
2022/02/04 21:39:11;;;;;;;1.40;1.20;;;6.60;99.90;;;;;;6314971;22;20222;-79
2022/02/04 21:41:37;;;;;;;1.70;0.93;;;6.60;99.90;;;;;;6314547;22;20147;-79
2022/02/04 21:44:03;;;;;;;1.70;1.10;;;6.50;99.90;;;;;;6314332;22;20175;-78
2022/02/04 21:46:30;;;;;;;1.00;0.90;;;6.50;99.90;;;;;;6285456;22;20624;-80